Time;durP1;ratioP1;P1;durP2;ratioP2;P2;SDS_P1;SDS_P2;PMS_P1;PMS_P2;Temp;Humidity;BMP_temperature;BMP_pressure;BME280_temperature;BME280_humidity;BME280_pressure;Samples;Min_cycle;Max_cycle;Signal;HPM_P1;HPM_P2
2021/11/30 00:00:44;;;;;;;;;19.75;18.50;;;;;;;;5050453;28;44982;-87
2021/11/30 00:03:10;;;;;;;;;22.00;19.33;;;;;;;;5051157;28;45154;-87
2021/11/30 00:05:35;;;;;;;;;22.00;19.00;;;;;;;;5050539;28;45248;-86
2021/11/30 00:08:03;;;;;;;;;21.00;17.67;;;;;;;;5050076;28;47407;-87
2021/11/30 00:10:46;;;;;;;;;22.00;19.00;;;;;;;;5048373;28;45596;-87
2021/11/30 00:13:16;;;;;;;;;18.00;17.25;;;;;;;;5032030;28;45252;-86
2021/11/30 00:15:42;;;;;;;;;19.75;19.00;;;;;;;;5032632;28;45199;-87
2021/11/30 00:18:08;;;;;;;;;17.75;17.00;;;;;;;;5030862;28;47518;-86
2021/11/30 00:20:34;;;;;;;;;17.75;16.00;;;;;;;;5025813;28;45441;-87
2021/11/30 00:22:59;;;;;;;;;18.00;15.75;;;;;;;;5025909;28;45137;-86
2021/11/30 00:25:24;;;;;;;;;15.00;14.33;;;;;;;;5036976;28;45151;-86
2021/11/30 00:27:49;;;;;;;;;17.00;17.00;;;;;;;;5027375;28;47204;-86
2021/11/30 00:30:15;;;;;;;;;21.33;20.00;;;;;;;;5030234;28;44883;-87
2021/11/30 00:32:40;;;;;;;;;19.33;18.00;;;;;;;;5047069;28;45057;-87
2021/11/30 00:35:05;;;;;;;;;25.00;22.33;;;;;;;;5044438;28;45014;-87
2021/11/30 00:37:30;;;;;;;;;16.67;15.33;;;;;;;;5036085;28;45614;-87
2021/11/30 00:39:56;;;;;;;;;23.67;22.33;;;;;;;;5032958;28;45176;-86
2021/11/30 00:42:24;;;;;;;;;21.00;18.00;;;;;;;;5043658;28;45337;-86
2021/11/30 00:44:51;;;;;;;;;19.50;19.25;;;;;;;;5028371;28;45201;-86
2021/11/30 00:47:19;;;;;;;;;25.25;21.75;;;;;;;;5035696;28;47219;-86
2021/11/30 00:49:45;;;;;;;;;21.25;18.50;;;;;;;;5028138;28;45089;-86
2021/11/30 00:52:10;;;;;;;;;20.75;17.75;;;;;;;;5026613;28;45232;-86
2021/11/30 00:54:35;;;;;;;;;23.00;18.50;;;;;;;;5043322;28;45203;-87
2021/11/30 00:57:01;;;;;;;;;19.00;15.67;;;;;;;;5047661;28;45258;-87
2021/11/30 00:59:29;;;;;;;;;18.50;18.00;;;;;;;;5028801;28;45412;-87
2021/11/30 01:01:55;;;;;;;;;15.75;15.25;;;;;;;;5027060;28;45122;-87
2021/11/30 01:04:20;;;;;;;;;15.50;15.50;;;;;;;;5026103;28;45175;-86
2021/11/30 01:06:46;;;;;;;;;19.33;15.00;;;;;;;;5025867;28;46819;-87
2021/11/30 01:09:11;;;;;;;;;18.00;17.33;;;;;;;;5025446;28;45142;-87
2021/11/30 01:11:37;;;;;;;;;18.00;17.00;;;;;;;;5026657;28;45078;-86
2021/11/30 01:14:02;;;;;;;;;17.50;15.00;;;;;;;;5037571;28;45022;-86
2021/11/30 01:16:28;;;;;;;;;19.67;18.00;;;;;;;;5030121;28;47005;-87
2021/11/30 01:18:53;;;;;;;;;16.50;14.00;;;;;;;;5045999;28;45340;-87
2021/11/30 01:21:22;;;;;;;;;18.00;16.00;;;;;;;;5045096;28;45344;-87
2021/11/30 01:23:47;;;;;;;;;15.25;14.50;;;;;;;;5034038;28;45100;-87
2021/11/30 01:26:12;;;;;;;;;14.33;14.33;;;;;;;;5024459;28;47231;-87
2021/11/30 01:28:38;;;;;;;;;15.00;13.67;;;;;;;;5058170;22;45139;-87
2021/11/30 01:31:03;;;;;;;;;10.33;10.33;;;;;;;;5069761;28;45094;-86
2021/11/30 01:33:29;;;;;;;;;17.67;16.33;;;;;;;;5070525;28;45568;-86
2021/11/30 01:35:55;;;;;;;;;16.75;14.50;;;;;;;;5072984;28;47376;-87
2021/11/30 01:38:21;;;;;;;;;17.50;14.75;;;;;;;;5072461;28;45709;-86
2021/11/30 01:40:47;;;;;;;;;20.50;16.75;;;;;;;;5072637;28;45217;-88
2021/11/30 01:43:18;;;;;;;;;16.00;14.00;;;;;;;;5072620;28;45315;-87
2021/11/30 01:45:46;;;;;;;;;11.50;10.25;;;;;;;;5090850;28;45936;-87
2021/11/30 01:50:51;;;;;;;;;14.00;13.75;;;;;;;;5090522;28;45238;-86
2021/11/30 01:53:16;;;;;;;;;16.75;14.75;;;;;;;;5072624;28;45109;-87
2021/11/30 01:55:45;;;;;;;;;15.33;15.00;;;;;;;;5072513;28;47457;-87
2021/11/30 01:58:12;;;;;;;;;14.00;13.00;;;;;;;;5072514;28;45530;-86
2021/11/30 02:00:38;;;;;;;;;16.00;13.25;;;;;;;;5072998;28;45006;-86
2021/11/30 02:03:07;;;;;;;;;17.25;13.00;;;;;;;;5071737;28;45241;-87
2021/11/30 02:05:37;;;;;;;;;11.25;11.25;;;;;;;;5090914;28;45779;-87
2021/11/30 02:08:03;;;;;;;;;15.00;14.25;;;;;;;;5072824;28;45447;-87
2021/11/30 02:10:29;;;;;;;;;13.00;12.50;;;;;;;;5071918;28;45116;-87
2021/11/30 02:12:54;;;;;;;;;10.00;10.00;;;;;;;;5072413;28;45330;-87
2021/11/30 02:15:21;;;;;;;;;15.00;15.00;;;;;;;;5071672;28;47116;-86
2021/11/30 02:17:46;;;;;;;;;14.75;13.50;;;;;;;;5071454;28;45440;-87
2021/11/30 02:20:12;;;;;;;;;14.00;13.00;;;;;;;;5071136;28;45323;-86
2021/11/30 02:22:37;;;;;;;;;14.25;13.25;;;;;;;;5072595;28;45292;-87
2021/11/30 02:25:03;;;;;;;;;17.00;15.67;;;;;;;;5071745;28;47132;-87
2021/11/30 02:27:28;;;;;;;;;15.25;14.25;;;;;;;;5071856;28;45531;-87
2021/11/30 02:29:54;;;;;;;;;14.50;13.00;;;;;;;;5072962;28;45047;-87
2021/11/30 02:32:20;;;;;;;;;14.67;14.67;;;;;;;;5071288;28;45105;-87
2021/11/30 02:34:45;;;;;;;;;16.75;15.00;;;;;;;;5072100;28;47559;-86
2021/11/30 02:37:12;;;;;;;;;14.25;14.00;;;;;;;;5071401;28;45477;-87
2021/11/30 02:39:38;;;;;;;;;14.00;13.75;;;;;;;;5061994;28;45213;-87
2021/11/30 02:42:05;;;;;;;;;18.25;13.75;;;;;;;;5090113;28;45300;-87
2021/11/30 02:44:31;;;;;;;;;11.00;8.50;;;;;;;;5069944;28;47340;-88
2021/11/30 02:46:58;;;;;;;;;21.50;18.75;;;;;;;;5070900;28;45287;-87
2021/11/30 02:49:26;;;;;;;;;16.00;13.75;;;;;;;;5071607;28;45348;-87
2021/11/30 02:51:54;;;;;;;;;13.00;11.25;;;;;;;;5090414;28;45155;-87
2021/11/30 02:54:22;;;;;;;;;13.25;12.75;;;;;;;;5071485;28;47538;-86
2021/11/30 02:56:53;;;;;;;;;15.00;13.75;;;;;;;;5072513;28;45157;-86
2021/11/30 02:59:19;;;;;;;;;14.25;13.75;;;;;;;;5071055;28;45247;-86
2021/11/30 03:01:58;;;;;;;;;15.00;13.25;;;;;;;;5071684;28;45420;-87
2021/11/30 03:04:24;;;;;;;;;13.25;13.25;;;;;;;;5071440;28;47811;-87
2021/11/30 03:06:49;;;;;;;;;16.25;14.50;;;;;;;;5071436;28;45417;-87
2021/11/30 03:09:15;;;;;;;;;18.67;13.33;;;;;;;;5071010;28;45178;-86
2021/11/30 03:11:40;;;;;;;;;16.00;15.00;;;;;;;;5071694;28;45290;-86
2021/11/30 03:14:06;;;;;;;;;18.00;14.75;;;;;;;;5071043;28;47779;-87
2021/11/30 03:16:32;;;;;;;;;20.00;15.25;;;;;;;;5070869;28;45578;-86
2021/11/30 03:18:57;;;;;;;;;15.00;15.00;;;;;;;;5071478;28;45020;-86
2021/11/30 03:21:22;;;;;;;;;13.75;11.25;;;;;;;;5070886;28;45123;-86
2021/11/30 03:23:48;;;;;;;;;15.00;13.33;;;;;;;;5070848;28;47665;-87
2021/11/30 03:26:13;;;;;;;;;13.75;13.75;;;;;;;;5071062;28;45338;-87
2021/11/30 03:28:41;;;;;;;;;18.25;14.00;;;;;;;;5071236;28;44980;-87
2021/11/30 03:31:08;;;;;;;;;14.00;13.00;;;;;;;;5071075;28;45261;-85
2021/11/30 03:36:17;;;;;;;;;17.00;15.25;;;;;;;;5089162;28;45171;-87
2021/11/30 03:38:42;;;;;;;;;14.75;13.25;;;;;;;;5079616;22;45171;-86
2021/11/30 03:41:08;;;;;;;;;16.75;14.50;;;;;;;;5047538;28;45033;-86
2021/11/30 03:43:33;;;;;;;;;15.75;14.25;;;;;;;;5046732;28;47692;-87
2021/11/30 03:45:59;;;;;;;;;13.75;12.25;;;;;;;;5033050;28;45163;-85
2021/11/30 03:48:24;;;;;;;;;19.25;15.25;;;;;;;;5040983;28;45453;-87
2021/11/30 03:50:49;;;;;;;;;14.00;13.00;;;;;;;;5047101;28;45251;-87
2021/11/30 03:53:14;;;;;;;;;14.00;13.33;;;;;;;;5047411;28;47273;-87
2021/11/30 03:55:40;;;;;;;;;16.33;15.67;;;;;;;;5046867;28;45363;-87
2021/11/30 03:58:05;;;;;;;;;15.25;13.50;;;;;;;;5040021;28;44998;-87
2021/11/30 04:00:30;;;;;;;;;18.00;17.67;;;;;;;;5047005;28;45116;-87
2021/11/30 04:02:56;;;;;;;;;16.67;16.67;;;;;;;;5047879;28;47899;-87
2021/11/30 04:05:21;;;;;;;;;13.50;12.25;;;;;;;;5045839;28;45135;-86
2021/11/30 04:07:46;;;;;;;;;17.00;16.00;;;;;;;;5047366;28;45163;-87
2021/11/30 04:10:11;;;;;;;;;17.33;16.67;;;;;;;;5047123;28;45516;-84
2021/11/30 04:12:37;;;;;;;;;16.33;14.00;;;;;;;;5046626;28;47866;-87
2021/11/30 04:15:02;;;;;;;;;16.33;14.67;;;;;;;;5048725;28;45225;-87
2021/11/30 04:17:27;;;;;;;;;22.00;17.75;;;;;;;;5046831;28;45239;-87
2021/11/30 04:19:53;;;;;;;;;18.67;17.67;;;;;;;;5038115;28;45346;-86
2021/11/30 04:22:18;;;;;;;;;14.67;13.33;;;;;;;;5026526;28;47647;-87
2021/11/30 04:24:43;;;;;;;;;17.33;14.67;;;;;;;;5029310;28;45279;-87
2021/11/30 04:27:09;;;;;;;;;16.00;14.67;;;;;;;;5031589;28;45198;-86
2021/11/30 04:29:37;;;;;;;;;14.67;14.33;;;;;;;;5034406;28;45113;-87
2021/11/30 04:32:03;;;;;;;;;15.50;14.25;;;;;;;;5046015;28;47609;-87
2021/11/30 04:34:28;;;;;;;;;17.75;17.00;;;;;;;;5035704;28;44966;-87
2021/11/30 04:36:53;;;;;;;;;14.00;12.33;;;;;;;;5027082;28;44951;-87
2021/11/30 04:39:18;;;;;;;;;16.00;15.33;;;;;;;;5035121;28;45223;-87
2021/11/30 04:41:44;;;;;;;;;17.67;14.67;;;;;;;;5047328;28;47145;-87
2021/11/30 04:44:10;;;;;;;;;13.25;12.25;;;;;;;;5038813;28;45306;-87
2021/11/30 04:46:51;;;;;;;;;21.50;17.50;;;;;;;;5026903;28;45055;-87
2021/11/30 04:49:34;;;;;;;;;15.50;13.75;;;;;;;;5043439;28;45926;-87
2021/11/30 04:52:06;;;;;;;;;14.50;14.50;;;;;;;;5032854;28;47452;-87
2021/11/30 04:54:31;;;;;;;;;21.00;19.00;;;;;;;;5036673;28;45643;-87
2021/11/30 04:56:57;;;;;;;;;14.00;13.67;;;;;;;;5056778;28;45044;-87
2021/11/30 04:59:23;;;;;;;;;11.00;11.00;;;;;;;;5049007;28;45371;-86
2021/11/30 05:01:49;;;;;;;;;15.50;14.00;;;;;;;;5045833;28;47339;-86
2021/11/30 05:04:14;;;;;;;;;11.00;9.25;;;;;;;;5046007;28;45403;-87
2021/11/30 05:06:40;;;;;;;;;13.75;13.25;;;;;;;;5046365;28;45180;-87
2021/11/30 05:09:05;;;;;;;;;13.25;13.25;;;;;;;;5048406;28;45250;-88
2021/11/30 05:11:31;;;;;;;;;13.33;13.33;;;;;;;;5049527;28;47824;-87
2021/11/30 05:13:56;;;;;;;;;16.50;14.50;;;;;;;;5049362;28;45100;-88
2021/11/30 05:16:22;;;;;;;;;15.75;14.25;;;;;;;;5049919;28;45129;-87
2021/11/30 05:18:47;;;;;;;;;14.50;13.75;;;;;;;;5050368;28;45392;-87
2021/11/30 05:21:12;;;;;;;;;19.33;17.33;;;;;;;;5049576;28;46933;-87
2021/11/30 05:23:38;;;;;;;;;13.33;11.33;;;;;;;;5050499;28;45230;-87
2021/11/30 05:26:05;;;;;;;;;17.00;14.75;;;;;;;;5047736;28;45009;-86
2021/11/30 05:28:30;;;;;;;;;14.25;11.50;;;;;;;;5033415;28;45020;-87
2021/11/30 05:30:56;;;;;;;;;13.50;13.25;;;;;;;;5030633;28;45333;-87
2021/11/30 05:33:21;;;;;;;;;16.00;13.33;;;;;;;;5029211;28;45407;-86
2021/11/30 05:35:46;;;;;;;;;11.67;10.67;;;;;;;;5031226;28;45319;-86
2021/11/30 05:38:12;;;;;;;;;17.67;12.67;;;;;;;;5028680;28;45239;-87
2021/11/30 05:40:40;;;;;;;;;15.00;14.00;;;;;;;;5033738;28;47117;-85
2021/11/30 05:43:05;;;;;;;;;16.25;14.50;;;;;;;;5029239;28;45275;-86
2021/11/30 05:45:31;;;;;;;;;14.67;14.00;;;;;;;;5044923;28;45205;-85
2021/11/30 05:47:56;;;;;;;;;16.50;13.00;;;;;;;;5048785;28;45246;-86
2021/11/30 05:50:21;;;;;;;;;13.33;13.00;;;;;;;;5048305;28;47260;-85
2021/11/30 05:52:47;;;;;;;;;18.75;18.00;;;;;;;;5036803;28;45154;-85
2021/11/30 05:55:12;;;;;;;;;13.33;12.33;;;;;;;;5046474;28;44928;-85
2021/11/30 05:57:38;;;;;;;;;14.75;14.00;;;;;;;;5045718;28;45373;-87
2021/11/30 06:00:04;;;;;;;;;17.25;14.25;;;;;;;;5050540;28;45977;-87
2021/11/30 06:02:31;;;;;;;;;13.75;13.00;;;;;;;;5049825;28;45368;-85
2021/11/30 06:04:56;;;;;;;;;16.25;13.75;;;;;;;;5048556;28;45486;-86
2021/11/30 06:07:21;;;;;;;;;17.00;15.50;;;;;;;;5048388;28;45115;-86
2021/11/30 06:09:46;;;;;;;;;13.33;13.00;;;;;;;;5041581;28;47090;-86
2021/11/30 06:12:12;;;;;;;;;14.00;13.67;;;;;;;;5038147;28;45346;-87
2021/11/30 06:14:37;;;;;;;;;16.67;16.00;;;;;;;;5048949;28;45179;-86
2021/11/30 06:17:02;;;;;;;;;17.33;17.00;;;;;;;;5044758;28;45283;-87
2021/11/30 06:19:28;;;;;;;;;15.50;14.50;;;;;;;;5029519;28;47354;-87
2021/11/30 06:21:53;;;;;;;;;13.25;13.25;;;;;;;;5018817;28;45180;-86
2021/11/30 06:24:18;;;;;;;;;13.67;12.33;;;;;;;;5025606;28;45530;-86
2021/11/30 06:26:44;;;;;;;;;9.50;9.00;;;;;;;;5039214;28;45735;-86
2021/11/30 06:29:09;;;;;;;;;13.50;12.50;;;;;;;;5044179;28;47057;-86
2021/11/30 06:31:35;;;;;;;;;15.67;13.67;;;;;;;;5046486;28;45168;-86
2021/11/30 06:34:00;;;;;;;;;14.67;13.00;;;;;;;;5025089;28;45029;-86
2021/11/30 06:36:25;;;;;;;;;17.00;16.67;;;;;;;;5031849;28;45396;-86
2021/11/30 06:38:50;;;;;;;;;15.67;14.67;;;;;;;;5074808;28;45175;-87
2021/11/30 06:41:16;;;;;;;;;8.00;6.75;;;;;;;;5057566;27;45750;-86
2021/11/30 06:43:41;;;;;;;;;11.50;10.25;;;;;;;;5072031;28;45090;-86
2021/11/30 06:46:06;;;;;;;;;15.67;14.00;;;;;;;;5054465;28;45142;-87
2021/11/30 06:48:32;;;;;;;;;15.33;13.00;;;;;;;;5051213;28;47132;-87
2021/11/30 06:50:57;;;;;;;;;10.33;10.00;;;;;;;;5050508;28;45226;-86
2021/11/30 06:53:24;;;;;;;;;15.00;10.67;;;;;;;;5051165;28;45160;-86
2021/11/30 06:55:49;;;;;;;;;15.50;14.00;;;;;;;;5045638;28;45404;-86
2021/11/30 06:58:14;;;;;;;;;10.00;9.00;;;;;;;;5029392;28;46990;-87
2021/11/30 07:00:40;;;;;;;;;15.00;14.00;;;;;;;;5023735;28;45686;-86
2021/11/30 07:03:05;;;;;;;;;15.00;14.75;;;;;;;;5030121;28;45522;-86
2021/11/30 07:05:38;;;;;;;;;13.50;12.50;;;;;;;;5030061;28;45478;-86
2021/11/30 07:10:45;;;;;;;;;16.25;13.00;;;;;;;;5058312;28;45372;-86
2021/11/30 07:13:22;;;;;;;;;15.00;12.75;;;;;;;;5033361;28;45732;-85
2021/11/30 07:15:51;;;;;;;;;14.50;13.50;;;;;;;;5020097;28;45523;-85
2021/11/30 07:18:16;;;;;;;;;12.75;12.50;;;;;;;;5031373;28;45514;-86
2021/11/30 07:20:43;;;;;;;;;17.50;16.75;;;;;;;;5016777;28;45517;-85
2021/11/30 07:23:08;;;;;;;;;12.25;12.00;;;;;;;;5015930;28;45667;-85
2021/11/30 07:25:33;;;;;;;;;16.75;16.75;;;;;;;;5026703;28;45503;-86
2021/11/30 07:27:59;;;;;;;;;16.00;16.00;;;;;;;;5045867;28;48493;-86
2021/11/30 07:30:24;;;;;;;;;16.00;14.00;;;;;;;;5031385;28;45662;-87
2021/11/30 07:32:49;;;;;;;;;18.00;17.33;;;;;;;;5013026;28;45380;-86
2021/11/30 07:35:15;;;;;;;;;19.00;17.25;;;;;;;;5011610;28;45648;-86
2021/11/30 07:37:40;;;;;;;;;14.67;14.00;;;;;;;;5012248;28;46676;-87
2021/11/30 07:40:06;;;;;;;;;18.50;16.25;;;;;;;;5030388;28;45553;-87
2021/11/30 07:42:32;;;;;;;;;18.25;16.50;;;;;;;;5012007;28;45582;-86
2021/11/30 07:44:58;;;;;;;;;21.00;19.25;;;;;;;;5037690;28;45593;-86
2021/11/30 07:47:23;;;;;;;;;19.00;16.33;;;;;;;;5027189;28;47094;-86
2021/11/30 07:49:48;;;;;;;;;17.00;15.00;;;;;;;;5022200;28;46030;-86
2021/11/30 07:52:13;;;;;;;;;23.33;19.33;;;;;;;;5016778;28;45460;-86
2021/11/30 07:54:39;;;;;;;;;18.67;16.33;;;;;;;;5049010;28;45497;-86
2021/11/30 07:57:04;;;;;;;;;18.67;16.67;;;;;;;;5082377;22;47234;-86
2021/11/30 07:59:29;;;;;;;;;24.75;20.75;;;;;;;;5051222;28;45517;-87
2021/11/30 08:01:55;;;;;;;;;19.50;19.00;;;;;;;;5052100;28;45884;-87
2021/11/30 08:04:20;;;;;;;;;30.50;26.75;;;;;;;;5051946;28;45440;-87
2021/11/30 08:06:45;;;;;;;;;22.67;22.00;;;;;;;;5051394;28;47442;-87
2021/11/30 08:09:11;;;;;;;;;24.67;22.00;;;;;;;;5051519;28;45906;-87
2021/11/30 08:11:37;;;;;;;;;23.75;23.50;;;;;;;;5052228;28;45308;-86
2021/11/30 08:14:02;;;;;;;;;28.50;25.50;;;;;;;;5051938;28;45514;-86
2021/11/30 08:16:28;;;;;;;;;22.50;21.25;;;;;;;;5051816;28;47154;-85
2021/11/30 08:18:53;;;;;;;;;25.67;22.00;;;;;;;;5051910;28;45624;-86
2021/11/30 08:21:18;;;;;;;;;22.00;19.33;;;;;;;;5050935;28;45312;-86
2021/11/30 08:23:43;;;;;;;;;23.33;21.33;;;;;;;;5052355;28;45442;-86
2021/11/30 08:26:12;;;;;;;;;24.00;22.00;;;;;;;;5069955;28;45571;-86
2021/11/30 08:28:37;;;;;;;;;23.50;20.50;;;;;;;;5051711;28;45806;-86
2021/11/30 08:31:02;;;;;;;;;27.00;23.67;;;;;;;;5051770;28;45399;-86
2021/11/30 08:33:28;;;;;;;;;28.33;24.67;;;;;;;;5051564;28;45659;-86
2021/11/30 08:35:55;;;;;;;;;34.33;27.00;;;;;;;;5051054;28;48264;-86
2021/11/30 08:38:21;;;;;;;;;24.00;22.50;;;;;;;;5051027;28;45570;-86
2021/11/30 08:40:46;;;;;;;;;30.75;26.50;;;;;;;;5051842;28;45447;-86
2021/11/30 08:43:11;;;;;;;;;23.50;23.00;;;;;;;;5052260;28;45467;-86
2021/11/30 08:45:36;;;;;;;;;24.00;23.00;;;;;;;;5055305;28;46946;-86
2021/11/30 08:48:02;;;;;;;;;30.00;29.00;;;;;;;;5055067;28;45650;-86
2021/11/30 08:50:27;;;;;;;;;28.75;23.75;;;;;;;;5054120;28;45537;-86
2021/11/30 08:52:53;;;;;;;;;23.33;20.67;;;;;;;;5073587;28;45547;-86
2021/11/30 08:55:18;;;;;;;;;30.75;28.75;;;;;;;;5054261;28;47127;-86
2021/11/30 08:57:43;;;;;;;;;29.00;25.33;;;;;;;;5054665;28;45579;-86
2021/11/30 09:00:11;;;;;;;;;27.00;23.33;;;;;;;;5054913;28;45590;-86
2021/11/30 09:02:37;;;;;;;;;21.75;20.25;;;;;;;;5054873;28;45903;-86
2021/11/30 09:05:05;;;;;;;;;23.75;21.00;;;;;;;;5054052;28;46711;-86
2021/11/30 09:07:34;;;;;;;;;23.75;20.75;;;;;;;;5054291;28;45804;-86
2021/11/30 09:09:59;;;;;;;;;28.00;26.75;;;;;;;;5055035;28;45673;-86
2021/11/30 09:12:26;;;;;;;;;22.50;21.50;;;;;;;;5054186;28;45458;-86
2021/11/30 09:14:51;;;;;;;;;28.75;25.50;;;;;;;;5055023;28;48008;-86
2021/11/30 09:17:17;;;;;;;;;28.75;24.75;;;;;;;;5054415;28;45527;-87
2021/11/30 09:19:43;;;;;;;;;29.75;28.25;;;;;;;;5054277;28;45576;-87
2021/11/30 09:22:08;;;;;;;;;31.75;29.50;;;;;;;;5054322;28;45442;-86
2021/11/30 09:24:34;;;;;;;;;21.00;20.25;;;;;;;;5054603;28;48115;-86
2021/11/30 09:26:59;;;;;;;;;25.25;22.75;;;;;;;;5072502;28;45449;-85
2021/11/30 09:29:24;;;;;;;;;23.00;21.33;;;;;;;;5054264;28;45511;-86
2021/11/30 09:31:50;;;;;;;;;25.00;21.33;;;;;;;;5054819;28;45514;-86
2021/11/30 09:34:15;;;;;;;;;26.00;21.50;;;;;;;;5054089;28;46823;-86
2021/11/30 09:36:43;;;;;;;;;23.75;21.50;;;;;;;;5054321;28;45511;-87
2021/11/30 09:39:09;;;;;;;;;23.25;20.25;;;;;;;;5054091;28;45349;-87
2021/11/30 09:41:34;;;;;;;;;23.00;20.00;;;;;;;;5054418;28;45515;-87
2021/11/30 09:44:00;;;;;;;;;25.25;20.00;;;;;;;;5054192;28;48063;-86
2021/11/30 09:46:25;;;;;;;;;29.50;26.75;;;;;;;;5072660;28;45586;-87
2021/11/30 09:48:51;;;;;;;;;35.25;32.00;;;;;;;;5054049;28;45696;-87
2021/11/30 09:51:16;;;;;;;;;30.75;27.50;;;;;;;;5087489;27;45389;-86
2021/11/30 09:53:42;;;;;;;;;25.50;23.25;;;;;;;;5087708;27;47878;-86
2021/11/30 09:56:07;;;;;;;;;21.50;20.75;;;;;;;;5053551;28;45632;-86
2021/11/30 09:58:33;;;;;;;;;27.00;26.25;;;;;;;;5088021;27;45544;-86
2021/11/30 10:00:59;;;;;;;;;30.50;24.25;;;;;;;;5053964;28;45757;-86
2021/11/30 10:03:25;;;;;;;;;27.25;24.75;;;;;;;;5053197;28;48112;-86
2021/11/30 10:05:52;;;;;;;;;26.75;25.00;;;;;;;;5053836;28;45435;-86
2021/11/30 10:08:24;;;;;;;;;25.25;24.00;;;;;;;;5053661;28;45699;-87
2021/11/30 10:10:49;;;;;;;;;25.25;21.25;;;;;;;;5053713;28;45722;-86
2021/11/30 10:13:14;;;;;;;;;28.33;24.67;;;;;;;;5052992;28;48281;-87
2021/11/30 10:15:45;;;;;;;;;24.67;23.33;;;;;;;;5053713;28;45591;-87
2021/11/30 10:18:23;;;;;;;;;24.50;23.75;;;;;;;;5053469;28;45344;-86
2021/11/30 10:20:51;;;;;;;;;25.25;24.25;;;;;;;;5053374;28;45504;-87
2021/11/30 10:23:17;;;;;;;;;25.00;24.50;;;;;;;;5053385;28;47454;-87
2021/11/30 10:25:43;;;;;;;;;31.50;27.25;;;;;;;;5054165;28;45880;-87
2021/11/30 10:28:11;;;;;;;;;25.50;22.00;;;;;;;;5054127;28;45595;-90
2021/11/30 10:30:38;;;;;;;;;24.50;22.50;;;;;;;;5053570;28;45506;-88
2021/11/30 10:33:04;;;;;;;;;21.50;21.25;;;;;;;;5052963;28;48429;-86
2021/11/30 10:35:30;;;;;;;;;30.00;26.50;;;;;;;;5063202;28;45848;-87
2021/11/30 10:37:59;;;;;;;;;24.75;21.00;;;;;;;;5053820;28;45795;-86
2021/11/30 10:40:26;;;;;;;;;25.25;23.50;;;;;;;;5056841;28;45686;-86
2021/11/30 10:42:57;;;;;;;;;22.00;21.25;;;;;;;;5073976;28;46541;-86
2021/11/30 10:45:27;;;;;;;;;22.25;21.50;;;;;;;;5052580;28;46071;-87
2021/11/30 10:47:53;;;;;;;;;29.75;21.25;;;;;;;;5051710;28;45550;-87
2021/11/30 10:50:25;;;;;;;;;33.25;27.50;;;;;;;;5048911;28;45425;-86
2021/11/30 10:52:52;;;;;;;;;34.25;30.00;;;;;;;;5050460;28;48171;-85
2021/11/30 10:55:18;;;;;;;;;30.00;28.75;;;;;;;;5051135;28;46062;-86
2021/11/30 10:57:45;;;;;;;;;28.25;24.75;;;;;;;;5049912;28;45528;-85
2021/11/30 11:00:11;;;;;;;;;28.75;21.75;;;;;;;;5050965;28;45545;-86
2021/11/30 11:02:53;;;;;;;;;24.75;22.00;;;;;;;;5080127;28;46104;-86
2021/11/30 11:05:24;;;;;;;;;19.25;18.50;;;;;;;;5065395;28;45900;-86
2021/11/30 11:08:00;;;;;;;;;31.50;26.00;;;;;;;;5051287;28;45353;-86
2021/11/30 11:10:26;;;;;;;;;21.25;21.00;;;;;;;;5073866;28;45790;-86
2021/11/30 11:12:51;;;;;;;;;27.75;26.00;;;;;;;;5059016;28;47888;-86
2021/11/30 11:15:35;;;;;;;;;30.67;22.33;;;;;;;;5058889;28;45293;-85
2021/11/30 11:18:16;;;;;;;;;20.75;19.50;;;;;;;;5059401;28;45339;-86
2021/11/30 11:20:41;;;;;;;;;23.25;21.25;;;;;;;;5055935;28;45778;-86
2021/11/30 11:23:07;;;;;;;;;20.00;17.00;;;;;;;;5072675;28;45461;-84
2021/11/30 11:25:32;;;;;;;;;24.00;22.00;;;;;;;;5054112;28;45518;-85
2021/11/30 11:27:58;;;;;;;;;24.00;21.33;;;;;;;;5055279;28;45790;-85
2021/11/30 11:30:24;;;;;;;;;26.75;24.00;;;;;;;;5054400;28;45288;-86
2021/11/30 11:32:49;;;;;;;;;17.50;16.25;;;;;;;;5054661;28;48402;-86
2021/11/30 11:35:16;;;;;;;;;19.25;15.50;;;;;;;;5054195;28;45513;-85
2021/11/30 11:37:44;;;;;;;;;23.50;20.75;;;;;;;;5073431;28;45472;-87
2021/11/30 11:40:10;;;;;;;;;26.50;25.25;;;;;;;;5052207;28;45752;-85
2021/11/30 11:42:36;;;;;;;;;23.50;20.50;;;;;;;;5053844;28;47134;-87
2021/11/30 11:45:01;;;;;;;;;22.50;22.00;;;;;;;;5051313;28;45992;-86
2021/11/30 11:47:27;;;;;;;;;23.25;23.00;;;;;;;;5050003;28;45427;-86
2021/11/30 11:49:56;;;;;;;;;24.00;21.00;;;;;;;;5053876;28;45784;-86
2021/11/30 11:52:22;;;;;;;;;28.50;27.25;;;;;;;;5052134;28;48277;-86
2021/11/30 11:54:59;;;;;;;;;29.33;23.67;;;;;;;;5061892;28;45281;-86
2021/11/30 11:57:25;;;;;;;;;24.25;22.75;;;;;;;;5053125;28;45600;-87
2021/11/30 11:59:50;;;;;;;;;48.75;36.25;;;;;;;;5064927;28;45638;-88
2021/11/30 12:02:23;;;;;;;;;36.33;30.67;;;;;;;;5081372;28;46430;-86
2021/11/30 12:04:57;;;;;;;;;30.50;29.00;;;;;;;;5059618;28;45842;-85
2021/11/30 12:07:24;;;;;;;;;26.50;24.75;;;;;;;;5057857;28;45575;-87
2021/11/30 12:10:09;;;;;;;;;25.50;23.50;;;;;;;;5049441;28;45530;-87
2021/11/30 12:12:34;;;;;;;;;26.25;23.25;;;;;;;;5046641;28;47714;-86
2021/11/30 12:15:02;;;;;;;;;23.67;21.00;;;;;;;;5048650;28;45696;-87
2021/11/30 12:17:28;;;;;;;;;20.75;18.50;;;;;;;;5047833;28;45288;-88
2021/11/30 12:19:56;;;;;;;;;18.75;16.75;;;;;;;;5048117;28;45637;-86
2021/11/30 12:22:40;;;;;;;;;22.00;18.75;;;;;;;;5047980;28;48273;-87
2021/11/30 12:25:05;;;;;;;;;16.25;16.00;;;;;;;;5048291;28;45821;-87
2021/11/30 12:27:31;;;;;;;;;18.33;18.33;;;;;;;;5049095;28;45441;-88
2021/11/30 12:29:56;;;;;;;;;23.33;19.33;;;;;;;;5052030;28;45485;-89
2021/11/30 12:32:27;;;;;;;;;33.00;28.67;;;;;;;;5052960;28;48292;-88
2021/11/30 12:34:55;;;;;;;;;27.25;23.75;;;;;;;;5056995;28;45682;-88
2021/11/30 12:37:25;;;;;;;;;22.50;19.75;;;;;;;;5058302;28;46378;-87
2021/11/30 12:40:05;;;;;;;;;21.75;21.00;;;;;;;;5068478;28;45659;-88
2021/11/30 12:42:44;;;;;;;;;22.75;19.25;;;;;;;;5067614;28;47543;-87
2021/11/30 12:45:14;;;;;;;;;17.50;16.00;;;;;;;;5058441;28;45518;-90
2021/11/30 12:47:39;;;;;;;;;17.00;17.00;;;;;;;;5066085;28;45491;-88
2021/11/30 12:50:19;;;;;;;;;20.75;20.50;;;;;;;;5064383;28;45574;-87
2021/11/30 12:52:45;;;;;;;;;19.50;17.75;;;;;;;;5067009;28;47692;-87
2021/11/30 12:55:10;;;;;;;;;22.00;19.67;;;;;;;;5066743;28;45132;-89
2021/11/30 12:57:36;;;;;;;;;18.67;18.67;;;;;;;;5071451;28;45112;-88
2021/11/30 13:00:10;;;;;;;;;7.75;6.50;;;;;;;;5087143;28;45102;-88
2021/11/30 13:02:41;;;;;;;;;21.50;18.00;;;;;;;;5078638;28;47388;-87
2021/11/30 13:05:09;;;;;;;;;23.00;21.50;;;;;;;;5067976;28;45451;-87
2021/11/30 13:07:56;;;;;;;;;17.25;16.75;;;;;;;;5068669;28;45481;-87
2021/11/30 13:10:40;;;;;;;;;18.00;17.00;;;;;;;;5067490;28;45580;-87
2021/11/30 13:13:17;;;;;;;;;17.00;17.00;;;;;;;;5068187;28;47981;-88
2021/11/30 13:15:46;;;;;;;;;18.50;17.50;;;;;;;;5068384;28;45813;-87
2021/11/30 13:18:12;;;;;;;;;20.25;19.25;;;;;;;;5068178;28;45394;-87
2021/11/30 13:20:37;;;;;;;;;17.33;15.33;;;;;;;;5068217;28;45974;-87
2021/11/30 13:23:04;;;;;;;;;21.00;19.67;;;;;;;;5067641;28;48121;-87
2021/11/30 13:25:32;;;;;;;;;25.00;23.50;;;;;;;;5068079;28;45524;-88
2021/11/30 13:28:03;;;;;;;;;22.50;19.00;;;;;;;;5068224;28;45598;-88
2021/11/30 13:30:32;;;;;;;;;19.25;18.50;;;;;;;;5070752;28;45771;-87
2021/11/30 13:33:00;;;;;;;;;20.50;18.75;;;;;;;;5071229;28;47580;-86
2021/11/30 13:35:25;;;;;;;;;20.00;18.50;;;;;;;;5070665;28;45820;-87
2021/11/30 13:37:54;;;;;;;;;24.00;23.00;;;;;;;;5071440;28;45861;-87
2021/11/30 13:40:32;;;;;;;;;22.25;21.25;;;;;;;;5072575;28;45708;-86
2021/11/30 13:43:00;;;;;;;;;18.50;17.50;;;;;;;;5072580;27;45557;-86
2021/11/30 13:45:26;;;;;;;;;16.00;12.50;;;;;;;;5070432;28;45426;-86
2021/11/30 13:47:52;;;;;;;;;19.75;18.75;;;;;;;;5070965;28;45285;-86
2021/11/30 13:50:18;;;;;;;;;21.00;20.75;;;;;;;;5070369;28;45581;-87
2021/11/30 13:52:43;;;;;;;;;25.25;22.00;;;;;;;;5072030;27;46397;-87
2021/11/30 13:55:09;;;;;;;;;23.67;22.33;;;;;;;;5070008;28;45627;-87
2021/11/30 13:57:34;;;;;;;;;26.25;20.50;;;;;;;;5070808;28;45635;-86
2021/11/30 14:00:00;;;;;;;;;18.25;17.00;;;;;;;;5070253;28;45711;-87
2021/11/30 14:02:58;;;;;;;;;27.00;23.00;;;;;;;;5070516;28;47358;-86
2021/11/30 14:05:23;;;;;;;;;22.50;22.25;;;;;;;;5014564;28;45760;-87
2021/11/30 14:07:56;;;;;;;;;23.00;21.50;;;;;;;;5070658;28;45507;-87
2021/11/30 14:10:22;;;;;;;;;20.25;18.75;;;;;;;;5070389;28;45461;-87
2021/11/30 14:12:48;;;;;;;;;22.50;21.75;;;;;;;;5072562;27;45725;-87
2021/11/30 14:15:13;;;;;;;;;23.50;19.50;;;;;;;;5069639;28;45429;-87
2021/11/30 14:17:39;;;;;;;;;18.50;18.25;;;;;;;;5070566;28;45860;-87
2021/11/30 14:20:16;;;;;;;;;20.25;19.75;;;;;;;;5070179;28;45614;-86
2021/11/30 14:22:41;;;;;;;;;21.00;18.25;;;;;;;;5070315;28;47311;-86